createdAt,value
2016-03-24T16:04:02.920Z,11.59
2016-03-24T16:05:02.907Z,11.57
2016-03-24T16:06:02.785Z,11.56
2016-03-24T16:07:02.865Z,11.52
2016-03-24T16:08:02.680Z,11.61
2016-03-24T16:09:02.735Z,11.54
2016-03-24T16:10:02.457Z,11.52
2016-03-24T16:11:03.131Z,11.43
2016-03-24T16:12:02.837Z,11.57
2016-03-24T16:13:03.043Z,11.49
2016-03-24T16:14:03.062Z,11.43
2016-03-24T16:15:02.501Z,11.47
2016-03-24T16:16:02.426Z,11.5
2016-03-24T16:17:02.600Z,11.52
2016-03-24T16:18:02.228Z,11.44
2016-03-24T16:19:02.262Z,11.41
2016-03-24T16:20:03.124Z,11.43
2016-03-24T16:21:02.361Z,11.43
2016-03-24T16:22:02.426Z,11.5
2016-03-24T16:23:02.116Z,11.52
2016-03-24T16:24:02.431Z,11.47
2016-03-24T16:25:02.059Z,11.46
2016-03-24T16:26:02.031Z,11.44
2016-03-24T16:27:02.002Z,11.39
2016-03-24T16:28:02.255Z,11.43
2016-03-24T16:29:02.055Z,11.47
2016-03-24T16:30:02.057Z,11.43
2016-03-24T16:31:02.028Z,11.44
2016-03-24T16:32:02.063Z,11.44
2016-03-24T16:33:02.721Z,11.46
2016-03-24T16:34:02.021Z,11.49
2016-03-24T16:35:01.883Z,11.44
2016-03-24T16:36:02.026Z,11.44
2016-03-24T16:37:01.904Z,11.41
2016-03-24T16:38:01.891Z,11.35
2016-03-24T16:39:01.754Z,11.38
2016-03-24T16:41:02.227Z,11.35
2016-03-24T16:42:01.589Z,11.35
2016-03-24T16:43:01.967Z,11.32
2016-03-24T16:44:01.954Z,11.31
2016-03-24T16:45:01.645Z,11.29
2016-03-24T16:46:01.726Z,11.39
2016-03-24T16:47:14.525Z,11.36
2016-03-24T16:48:02.542Z,11.35
2016-03-24T16:49:01.920Z,11.35
2016-03-24T16:50:01.502Z,11.21
2016-03-24T16:51:01.457Z,11.32
2016-03-24T16:52:01.522Z,11.32
2016-03-24T16:53:15.181Z,11.24
2016-03-24T16:54:01.480Z,11.31
2016-03-24T16:55:01.578Z,11.25
2016-03-24T16:56:28.862Z,11.28
2016-03-24T16:57:01.442Z,11.27
2016-03-24T16:58:01.305Z,11.28
2016-03-24T16:59:00.385Z,11.28
2016-03-24T17:00:01.356Z,11.28
2016-03-24T17:01:01.156Z,11.2
2016-03-24T17:02:01.159Z,11.17
2016-03-24T17:03:01.146Z,11.27
2016-03-24T17:04:01.148Z,11.2
2016-03-24T17:05:14.870Z,11.21
2016-03-24T17:06:01.107Z,11.19
2016-03-24T17:07:01.110Z,11.16
2016-03-24T17:08:01.001Z,11.25
2016-03-24T17:09:04.083Z,11.2
2016-03-24T17:10:00.945Z,11.13
2016-03-24T17:11:00.964Z,11.2
2016-03-24T17:12:01.934Z,11.11
2016-03-24T17:13:00.922Z,11.16
2016-03-24T17:14:00.878Z,11.14
2016-03-24T17:15:00.896Z,11.09
2016-03-24T17:16:00.836Z,11.13
2016-03-24T17:17:00.823Z,11.07
2016-03-24T17:18:03.778Z,11.11
2016-03-24T17:19:01.016Z,11.07
2016-03-24T17:20:00.972Z,11.1
2016-03-24T17:21:00.772Z,11.02
2016-03-24T17:22:00.727Z,11.02
2016-03-24T17:23:00.699Z,11.07
2016-03-24T17:24:00.733Z,11.02
2016-03-24T17:25:00.969Z,10.96
2016-03-24T17:26:00.582Z,11.06
2016-03-24T17:27:00.538Z,11.01
2016-03-24T17:28:00.649Z,11.02
2016-03-24T17:29:00.683Z,10.99
2016-03-24T17:30:00.827Z,10.95
2016-03-24T17:31:00.548Z,10.91
2016-03-24T17:32:00.754Z,10.88
2016-03-24T17:33:00.460Z,10.99
2016-03-24T17:34:00.400Z,10.95
2016-03-24T17:35:00.606Z,10.84
2016-03-24T17:36:00.562Z,10.89
2016-03-24T17:37:00.454Z,10.89
2016-03-24T17:38:00.379Z,10.88
2016-03-24T17:39:00.304Z,10.89
2016-03-24T17:40:00.510Z,10.86
2016-03-24T17:41:13.975Z,10.91
2016-03-24T17:42:00.496Z,10.92
2016-03-24T17:43:00.378Z,10.88
2016-03-24T17:44:00.071Z,10.95
2016-03-24T17:45:00.031Z,10.89
2016-03-24T17:46:00.040Z,10.92
2016-03-24T17:47:00.039Z,10.8
2016-03-24T17:47:59.958Z,10.91
2016-03-24T17:48:59.942Z,10.88
2016-03-24T17:49:59.970Z,10.83
2016-03-24T17:50:59.844Z,10.83
2016-03-24T17:51:59.799Z,10.83
2016-03-24T17:53:00.098Z,10.78
2016-03-24T17:53:59.817Z,10.8
2016-03-24T17:54:59.974Z,10.83
2016-03-24T17:55:59.726Z,10.81
2016-03-24T17:56:59.712Z,10.8
2016-03-24T17:57:59.699Z,10.83
2016-03-24T17:58:59.669Z,10.74
2016-03-24T17:59:59.625Z,10.74
2016-03-24T18:00:59.783Z,10.77
2016-03-24T18:01:59.692Z,10.77
2016-03-24T18:02:59.616Z,10.7
2016-03-24T18:03:59.572Z,10.76
2016-03-24T18:04:59.950Z,10.74
2016-03-24T18:05:59.516Z,10.68
2016-03-24T18:06:59.439Z,10.68
2016-03-24T18:07:59.536Z,10.74
2016-03-24T18:08:59.383Z,10.71
2016-03-24T18:09:59.463Z,10.8
2016-03-24T18:10:59.685Z,10.7
2016-03-24T18:11:59.312Z,10.7
2016-03-24T18:12:59.660Z,10.74
2016-03-24T18:13:59.396Z,10.77
2016-03-24T18:14:59.226Z,10.73
2016-03-24T18:15:59.230Z,10.71
2016-03-24T18:16:59.185Z,10.8
2016-03-24T18:17:59.172Z,10.83
2016-03-24T18:18:59.409Z,10.68
2016-03-24T18:19:59.303Z,10.71
2016-03-24T18:20:59.086Z,10.74
2016-03-24T18:21:59.401Z,10.68
2016-03-24T18:22:59.186Z,10.68
2016-03-24T18:23:59.392Z,10.66
2016-03-24T18:24:59.301Z,10.74
2016-03-24T18:25:58.991Z,10.73
2016-03-24T18:26:58.962Z,10.77
2016-03-24T18:27:59.089Z,10.68
2016-03-24T18:28:58.921Z,10.81
2016-03-24T18:29:58.908Z,10.66
2016-03-24T18:30:59.050Z,10.68
2016-03-24T18:31:59.210Z,10.68
2016-03-24T18:32:59.745Z,10.66
2016-03-24T18:33:58.856Z,10.73
2016-03-24T18:34:58.921Z,10.68
2016-03-24T18:35:59.955Z,10.7
2016-03-24T18:36:59.927Z,10.68
2016-03-24T18:37:59.194Z,10.71
2016-03-24T18:38:58.775Z,10.66
2016-03-24T18:39:58.888Z,10.77
2016-03-24T18:40:58.703Z,10.71
2016-03-24T18:41:58.893Z,10.77
2016-03-24T18:43:00.458Z,10.83
2016-03-24T18:43:58.664Z,10.83
2016-03-24T18:44:58.871Z,10.7
2016-03-24T18:45:59.482Z,10.71
2016-03-24T18:46:58.485Z,10.68
2016-03-24T18:47:58.488Z,10.7
2016-03-24T18:48:59.115Z,10.68
2016-03-24T18:49:58.477Z,10.68
2016-03-24T18:50:58.386Z,10.66
2016-03-24T18:51:58.482Z,10.7
2016-03-24T18:52:58.376Z,10.7
2016-03-24T18:53:58.488Z,10.7
2016-03-24T18:54:58.304Z,10.6
2016-03-24T18:55:58.556Z,10.66
2016-03-24T18:56:58.199Z,10.7
2016-03-24T18:57:58.295Z,10.63
2016-03-24T18:59:01.189Z,10.66
2016-03-24T18:59:58.332Z,10.68
2016-03-24T19:00:58.117Z,10.65
2016-03-24T19:01:58.198Z,10.68
2016-03-24T19:02:58.200Z,10.7
2016-03-24T19:03:58.500Z,10.66
2016-03-24T19:04:58.033Z,10.66
2016-03-24T19:05:58.333Z,10.63
2016-03-24T19:06:58.007Z,10.68
2016-03-24T19:07:57.916Z,10.62
2016-03-24T19:08:57.950Z,10.68
2016-03-24T19:09:57.983Z,10.7
2016-03-24T19:10:57.956Z,10.63
2016-03-24T19:11:57.880Z,10.68
2016-03-24T19:12:56.976Z,10.66
2016-03-24T19:13:57.995Z,10.68
2016-03-24T19:14:58.466Z,10.68
2016-03-24T19:15:57.829Z,10.7
2016-03-24T19:16:57.737Z,10.65
2016-03-24T19:17:58.162Z,10.66
2016-03-24T19:18:57.868Z,10.6
2016-03-24T19:19:57.714Z,10.62
2016-03-24T19:20:57.685Z,10.59
2016-03-24T19:21:58.970Z,10.63
2016-03-24T19:22:58.019Z,10.65
2016-03-24T19:24:58.571Z,10.68
2016-03-24T19:25:57.531Z,10.71
2016-03-24T19:26:57.565Z,10.65
2016-03-24T19:27:57.443Z,10.63
2016-03-24T19:28:57.773Z,10.59
2016-03-24T19:29:57.480Z,10.59
2016-03-24T19:30:57.482Z,10.59
2016-03-24T19:31:57.343Z,10.68
2016-03-24T19:33:00.332Z,10.68
2016-03-24T19:33:57.427Z,10.65
2016-03-24T19:34:57.273Z,10.6
2016-03-24T19:35:57.527Z,10.66
2016-03-24T19:36:57.343Z,10.63
2016-03-24T19:37:57.329Z,10.63
2016-03-24T19:38:57.175Z,10.59
2016-03-24T19:39:57.147Z,10.65
2016-03-24T19:40:57.462Z,10.7
2016-03-24T19:41:58.573Z,10.65
2016-03-24T19:42:58.030Z,10.65
2016-03-24T19:43:57.408Z,10.68
2016-03-24T19:44:57.192Z,10.65
2016-03-24T19:45:57.163Z,10.65
2016-03-24T19:46:57.478Z,10.65
2016-03-24T19:47:57.106Z,10.68
2016-03-24T19:48:57.358Z,10.62
2016-03-24T19:49:57.017Z,10.63
2016-03-24T19:50:57.583Z,10.66
2016-03-24T19:51:57.148Z,10.65
2016-03-24T19:52:57.010Z,10.59
2016-03-24T19:53:56.793Z,10.66
2016-03-24T19:54:57.063Z,10.63
2016-03-24T19:55:56.799Z,10.65
2016-03-24T19:56:57.676Z,10.65
2016-03-24T19:57:56.711Z,10.65
2016-03-24T19:58:56.666Z,10.6
2016-03-24T20:00:28.263Z,10.66
2016-03-24T20:00:55.828Z,10.63
2016-03-24T20:01:56.613Z,10.59
2016-03-24T20:02:57.724Z,10.59
2016-03-24T20:03:56.603Z,10.65
2016-03-24T20:04:59.794Z,10.63
2016-03-24T20:05:56.592Z,10.7
2016-03-24T20:06:57.252Z,10.65
2016-03-24T20:07:56.504Z,10.66
2016-03-24T20:08:56.444Z,10.68
2016-03-24T20:09:56.400Z,10.68
2016-03-24T20:10:57.168Z,10.7
2016-03-24T20:11:57.781Z,10.68
2016-03-24T20:12:57.440Z,10.59
2016-03-24T20:13:56.770Z,10.6
2016-03-24T20:14:57.305Z,10.66
2016-03-24T20:15:56.994Z,10.6
2016-03-24T20:16:56.231Z,10.62
2016-03-24T20:17:56.282Z,10.66
2016-03-24T20:18:56.816Z,10.65
2016-03-24T20:19:56.927Z,10.7
2016-03-24T20:20:56.695Z,10.59
2016-03-24T20:21:56.215Z,10.66
2016-03-24T20:22:56.138Z,10.52
2016-03-24T20:23:56.484Z,10.65
2016-03-24T20:24:56.065Z,10.68
2016-03-24T20:25:58.131Z,10.65
2016-03-24T20:26:56.009Z,10.63
2016-03-24T20:27:56.105Z,10.66
2016-03-24T20:28:56.154Z,10.58
2016-03-24T20:29:55.938Z,10.62
2016-03-24T20:30:56.316Z,10.65
2016-03-24T20:31:55.944Z,10.63
2016-03-24T20:32:55.869Z,10.65
2016-03-24T20:33:55.783Z,10.66
2016-03-24T20:34:55.754Z,10.65
2016-03-24T20:35:55.961Z,10.66
2016-03-24T20:36:55.916Z,10.66
2016-03-24T20:37:56.669Z,10.58
2016-03-24T20:38:55.703Z,10.63
2016-03-24T20:39:56.003Z,10.59
2016-03-24T20:40:55.677Z,10.59
2016-03-24T20:41:55.711Z,10.58
2016-03-24T20:42:55.792Z,10.56
2016-03-24T20:43:55.591Z,10.62
2016-03-24T20:44:55.750Z,10.62
2016-03-24T20:45:55.706Z,10.63
2016-03-24T20:46:55.787Z,10.55
2016-03-24T20:47:55.711Z,10.53
2016-03-24T20:48:55.729Z,10.53
2016-03-24T20:49:55.905Z,10.53
2016-03-24T20:50:55.610Z,10.53
2016-03-24T20:51:55.628Z,10.55
2016-03-24T20:52:55.757Z,10.58
2016-03-24T20:53:55.712Z,10.55
2016-03-24T20:54:55.887Z,10.56
2016-03-24T20:55:56.233Z,10.53
2016-03-24T20:56:55.657Z,10.52
2016-03-24T20:57:55.598Z,10.51
2016-03-24T20:58:56.054Z,10.47
2016-03-24T20:59:55.915Z,10.52
2016-03-24T21:00:59.028Z,10.51
2016-03-24T21:01:55.499Z,10.52
2016-03-24T21:02:55.315Z,10.47
2016-03-24T21:03:55.864Z,10.58
2016-03-24T21:04:55.256Z,10.53
2016-03-24T21:05:55.870Z,10.55
2016-03-24T21:06:55.700Z,10.47
2016-03-24T21:07:55.192Z,10.51
2016-03-24T21:08:54.976Z,10.46
2016-03-24T21:09:54.994Z,10.47
2016-03-24T21:10:55.044Z,10.42
2016-03-24T21:11:55.922Z,10.43
2016-03-24T21:12:54.830Z,10.44
2016-03-24T21:13:55.005Z,10.44
2016-03-24T21:14:55.606Z,10.37
2016-03-24T21:15:54.797Z,10.42
2016-03-24T21:16:54.940Z,10.39
2016-03-24T21:17:55.317Z,10.43
2016-03-24T21:18:54.774Z,10.42
2016-03-24T21:19:54.698Z,10.39
2016-03-24T21:20:54.732Z,10.44
2016-03-24T21:21:55.813Z,10.36
2016-03-24T21:22:54.596Z,10.39
2016-03-24T21:23:54.724Z,10.39
2016-03-24T21:24:54.977Z,10.34
2016-03-24T21:25:54.776Z,10.33
2016-03-24T21:26:54.576Z,10.32
2016-03-24T21:27:54.516Z,10.32
2016-03-24T21:28:54.754Z,10.25
2016-03-24T21:29:55.538Z,10.32
2016-03-24T21:30:54.618Z,10.3
2016-03-24T21:31:55.528Z,10.24
2016-03-24T21:32:54.577Z,10.3
2016-03-24T21:33:54.392Z,10.24
2016-03-24T21:34:54.302Z,10.21
2016-03-24T21:35:54.273Z,10.19
2016-03-24T21:36:54.260Z,10.22
2016-03-24T21:37:54.248Z,10.21
2016-03-24T21:38:54.218Z,10.19
2016-03-24T21:39:54.143Z,10.22
2016-03-24T21:40:54.209Z,10.25
2016-03-24T21:41:54.180Z,10.17
2016-03-24T21:42:55.495Z,10.33
2016-03-24T21:43:54.075Z,10.32
2016-03-24T21:44:54.251Z,10.3
2016-03-24T21:45:54.019Z,10.19
2016-03-24T21:46:54.021Z,10.25
2016-03-24T21:47:54.040Z,10.21
2016-03-24T21:48:54.230Z,10.19
2016-03-24T21:49:54.216Z,10.22
2016-03-24T21:50:53.892Z,10.19
2016-03-24T21:51:54.144Z,10.18
2016-03-24T21:52:54.413Z,10.18
2016-03-24T21:53:54.088Z,10.15
2016-03-24T21:55:07.574Z,10.24
2016-03-24T21:55:53.968Z,10.24
2016-03-24T21:56:53.752Z,10.22
2016-03-24T21:57:54.207Z,10.21
2016-03-24T21:59:08.308Z,10.22
2016-03-24T21:59:55.278Z,10.26
2016-03-24T22:00:53.376Z,10.21
2016-03-24T22:01:55.628Z,10.22
2016-03-24T22:02:54.114Z,10.07
2016-03-24T22:03:54.275Z,10.12
2016-03-24T22:04:53.730Z,10.04
2016-03-24T22:05:54.170Z,10.03
2016-03-24T22:06:54.330Z,10.09
2016-03-24T22:08:54.241Z,10.21
2016-03-24T22:10:54.090Z,10.09
2016-03-24T22:11:53.796Z,10.12
2016-03-24T22:12:55.220Z,10.14
2016-03-24T22:14:53.710Z,10.18
2016-03-24T22:15:53.478Z,10.1
2016-03-24T22:17:07.215Z,10.07
2016-03-24T22:17:54.530Z,10.06
2016-03-24T22:18:53.642Z,10.09
2016-03-24T22:19:54.224Z,10.07
2016-03-24T22:21:07.679Z,10.12
2016-03-24T22:21:54.166Z,10.09
2016-03-24T22:22:54.638Z,10.07
2016-03-24T22:32:31.459Z,10
2016-03-24T22:33:13.244Z,9.97
2016-03-24T22:34:13.574Z,9.99
2016-03-24T22:35:25.889Z,9.97
2016-03-24T22:36:11.455Z,10.01
2016-03-24T22:37:11.879Z,10.03
2016-03-24T22:42:20.268Z,10.01
2016-03-24T22:43:20.255Z,10
2016-03-24T22:44:19.336Z,9.89
2016-03-24T22:45:34.198Z,9.86
2016-03-24T22:46:33.139Z,9.97
2016-03-24T22:48:19.768Z,9.86
2016-03-24T22:49:19.287Z,9.93
2016-03-24T22:50:23.055Z,9.96
2016-03-24T22:51:18.963Z,10.04
2016-03-24T22:52:19.577Z,10.01
2016-03-24T22:53:19.282Z,9.97
2016-03-24T22:54:18.910Z,9.86
2016-03-24T22:55:20.147Z,9.97
2016-03-24T22:57:20.246Z,9.86
2016-03-24T22:58:19.811Z,9.88
2016-03-24T22:59:19.673Z,9.86
2016-03-24T23:00:19.113Z,9.91
2016-03-24T23:01:32.476Z,9.94
2016-03-24T23:02:19.197Z,9.89
2016-03-24T23:03:18.668Z,9.93
2016-03-24T23:04:32.358Z,9.94
2016-03-24T23:05:20.487Z,9.88
2016-03-24T23:06:18.614Z,9.99
2016-03-24T23:07:19.537Z,9.88
2016-03-24T23:08:19.838Z,9.88
2016-03-24T23:10:18.593Z,9.94
2016-03-24T23:11:20.456Z,9.94
2016-03-24T23:12:18.505Z,9.86
2016-03-24T23:13:33.008Z,9.89
2016-03-24T23:14:33.729Z,9.91
2016-03-24T23:15:19.341Z,9.91
2016-03-24T23:16:18.937Z,9.93
2016-03-24T23:17:20.175Z,9.91
2016-03-24T23:19:19.883Z,9.93
2016-03-24T23:20:18.354Z,9.94
2016-03-24T23:21:19.186Z,9.85
2016-03-24T23:22:17.485Z,9.86
2016-03-24T23:23:18.846Z,9.86
2016-03-24T23:24:18.553Z,9.83
2016-03-24T23:25:18.321Z,9.89
2016-03-24T23:26:19.199Z,9.91
2016-03-24T23:27:19.671Z,9.88
2016-03-24T23:30:57.759Z,9.85
2016-03-24T23:31:51.793Z,9.91
2016-03-24T23:32:53.390Z,9.89
2016-03-24T23:33:54.596Z,9.89
2016-03-24T23:34:52.957Z,9.93
2016-03-24T23:35:52.225Z,9.88
2016-03-24T23:36:53.073Z,9.85
2016-03-24T23:37:54.262Z,9.86
2016-03-24T23:38:51.498Z,9.89
2016-03-24T23:39:52.596Z,9.97
2016-03-24T23:40:51.396Z,9.91
2016-03-24T23:41:51.555Z,9.91
2016-03-24T23:43:51.451Z,9.94
2016-03-24T23:44:51.391Z,9.96
2016-03-24T23:45:54.254Z,9.88
2016-03-24T23:46:52.709Z,9.97
2016-03-24T23:47:50.759Z,9.91
2016-03-24T23:48:51.746Z,9.96
2016-03-24T23:49:51.234Z,9.88
2016-03-24T23:55:17.403Z,9.81
2016-03-24T23:56:17.718Z,9.85
